createdAt,value
2018-07-30T00:01:03.105Z,24.59
2018-07-30T00:03:31.912Z,24.38
2018-07-30T00:06:00.757Z,24.35
2018-07-30T00:08:29.650Z,24.31
2018-07-30T00:10:58.513Z,24.23
2018-07-30T00:13:27.350Z,24.15
2018-07-30T00:15:56.217Z,24.08
2018-07-30T00:18:25.118Z,24.02
2018-07-30T00:20:53.930Z,23.98
2018-07-30T00:23:22.811Z,23.89
2018-07-30T00:25:51.784Z,23.85
2018-07-30T00:28:20.622Z,23.82
2018-07-30T00:30:49.466Z,23.78
2018-07-30T00:33:18.434Z,23.74
2018-07-30T00:35:47.266Z,23.76
2018-07-30T00:38:16.107Z,23.74
2018-07-30T00:40:44.940Z,23.71
2018-07-30T00:43:13.777Z,23.68
2018-07-30T00:45:42.612Z,23.67
2018-07-30T00:48:14.512Z,23.66
2018-07-30T00:50:43.369Z,23.61
2018-07-30T00:53:12.219Z,23.62
2018-07-30T00:55:41.044Z,23.58
2018-07-30T00:58:09.945Z,23.58
2018-07-30T01:00:38.809Z,23.56
2018-07-30T01:03:07.631Z,23.56
2018-07-30T01:05:36.505Z,23.51
2018-07-30T01:08:05.379Z,23.79
2018-07-30T01:10:34.213Z,23.57
2018-07-30T01:13:03.070Z,23.58
2018-07-30T01:15:31.926Z,23.56
2018-07-30T01:18:00.786Z,23.85
2018-07-30T01:20:29.625Z,23.62
2018-07-30T01:22:58.463Z,23.53
2018-07-30T01:25:27.308Z,23.59
2018-07-30T01:27:56.143Z,23.63
2018-07-30T01:30:24.996Z,23.64
2018-07-30T01:33:29.896Z,23.70
2018-07-30T01:35:58.760Z,24.09
2018-07-30T01:38:27.623Z,23.90
2018-07-30T01:40:56.441Z,23.91
2018-07-30T01:43:25.300Z,23.94
2018-07-30T01:45:54.203Z,23.87
2018-07-30T01:48:22.987Z,23.82
2018-07-30T01:50:51.807Z,23.80
2018-07-30T01:53:20.686Z,23.83
2018-07-30T01:55:49.666Z,23.84
2018-07-30T01:58:18.532Z,23.76
2018-07-30T02:00:47.356Z,23.84
2018-07-30T02:03:16.192Z,23.88
2018-07-30T02:05:45.069Z,23.89
2018-07-30T02:08:13.901Z,23.96
2018-07-30T02:10:42.770Z,23.99
2018-07-30T02:13:11.642Z,23.98
2018-07-30T02:15:40.487Z,23.96
2018-07-30T02:18:09.361Z,23.96
2018-07-30T02:20:38.240Z,23.98
2018-07-30T02:23:07.087Z,24.28
2018-07-30T02:25:35.948Z,24.10
2018-07-30T02:28:04.796Z,24.08
2018-07-30T02:30:33.638Z,24.04
2018-07-30T02:33:02.502Z,23.93
2018-07-30T02:35:31.358Z,23.87
2018-07-30T02:38:00.188Z,23.86
2018-07-30T02:40:34.933Z,23.85
2018-07-30T02:43:03.773Z,23.78
2018-07-30T02:45:32.608Z,23.71
2018-07-30T02:48:01.462Z,23.64
2018-07-30T02:50:30.286Z,23.64
2018-07-30T02:52:59.152Z,23.58
2018-07-30T02:55:27.975Z,23.57
2018-07-30T02:57:56.810Z,23.54
2018-07-30T03:00:25.663Z,23.52
2018-07-30T03:02:54.516Z,23.53
2018-07-30T03:05:23.344Z,23.53
2018-07-30T03:07:52.205Z,23.57
2018-07-30T03:10:21.030Z,23.59
2018-07-30T03:12:49.877Z,23.62
2018-07-30T03:15:18.730Z,23.63
2018-07-30T03:17:47.619Z,23.65
2018-07-30T03:20:16.439Z,23.60
2018-07-30T03:22:45.290Z,23.61
2018-07-30T03:25:14.219Z,23.62
2018-07-30T03:27:43.040Z,23.65
2018-07-30T03:30:12.063Z,23.61
2018-07-30T03:32:41.073Z,23.62
2018-07-30T03:35:09.918Z,23.59
2018-07-30T03:37:38.777Z,23.59
2018-07-30T03:40:07.664Z,23.60
2018-07-30T03:42:36.507Z,23.59
2018-07-30T03:45:06.904Z,23.62
2018-07-30T03:47:35.748Z,23.62
2018-07-30T03:50:04.761Z,23.68
2018-07-30T03:52:33.607Z,23.68
2018-07-30T03:55:02.433Z,23.71
2018-07-30T03:57:31.271Z,23.73
2018-07-30T04:00:00.172Z,23.70
2018-07-30T04:02:28.955Z,23.67
2018-07-30T04:04:57.861Z,23.61
2018-07-30T04:07:26.843Z,23.58
2018-07-30T04:09:55.722Z,23.56
2018-07-30T04:12:24.588Z,23.51
2018-07-30T04:14:53.425Z,23.49
2018-07-30T04:17:22.295Z,23.46
2018-07-30T04:19:51.133Z,23.43
2018-07-30T04:22:19.995Z,23.40
2018-07-30T04:24:48.836Z,23.38
2018-07-30T04:27:17.668Z,23.41
2018-07-30T04:29:46.663Z,23.45
2018-07-30T04:32:15.498Z,23.48
2018-07-30T04:34:44.337Z,23.42
2018-07-30T04:37:13.208Z,23.46
2018-07-30T04:39:42.042Z,23.46
2018-07-30T04:42:10.863Z,23.48
2018-07-30T04:44:39.696Z,23.54
2018-07-30T04:47:08.548Z,23.57
2018-07-30T04:49:37.389Z,23.60
2018-07-30T04:52:09.233Z,23.69
2018-07-30T04:54:38.074Z,23.68
2018-07-30T04:57:06.908Z,23.74
2018-07-30T04:59:35.788Z,23.75
2018-07-30T05:02:04.600Z,23.68
2018-07-30T05:04:33.467Z,23.65
2018-07-30T05:07:02.360Z,23.66
2018-07-30T05:09:31.249Z,23.64
2018-07-30T05:12:00.135Z,23.65
2018-07-30T05:14:32.177Z,23.60
2018-07-30T05:17:01.021Z,23.76
2018-07-30T05:19:29.951Z,23.66
2018-07-30T05:21:58.743Z,23.65
2018-07-30T05:24:27.581Z,23.63
2018-07-30T05:26:56.457Z,23.67
2018-07-30T05:29:25.462Z,23.75
2018-07-30T05:31:54.258Z,23.83
2018-07-30T05:34:23.131Z,24.16
2018-07-30T05:36:52.138Z,24.14
2018-07-30T05:39:20.977Z,24.26
2018-07-30T05:41:49.806Z,24.32
2018-07-30T05:44:18.663Z,24.25
2018-07-30T05:46:47.521Z,24.35
2018-07-30T05:49:16.466Z,24.16
2018-07-30T05:51:45.281Z,24.26
2018-07-30T05:54:14.275Z,24.30
2018-07-30T05:56:43.119Z,24.48
2018-07-30T05:59:11.973Z,24.59
2018-07-30T06:01:40.839Z,24.60
2018-07-30T06:04:09.657Z,24.59
2018-07-30T06:06:38.506Z,24.67
2018-07-30T06:09:08.668Z,24.58
2018-07-30T06:11:37.789Z,24.60
2018-07-30T06:14:06.658Z,24.50
2018-07-30T06:16:35.490Z,24.42
2018-07-30T06:19:04.336Z,24.58
2018-07-30T06:21:36.268Z,26.30
2018-07-30T06:24:05.104Z,27.82
2018-07-30T06:26:33.967Z,29.52
2018-07-30T06:29:02.774Z,29.76
2018-07-30T06:31:31.610Z,30.37
2018-07-30T06:34:00.440Z,31.22
2018-07-30T06:36:29.296Z,32.36
2018-07-30T06:38:58.125Z,33.28
2018-07-30T06:41:26.971Z,33.85
2018-07-30T06:43:56.897Z,34.73
2018-07-30T06:46:25.791Z,35.87
2018-07-30T06:48:54.628Z,37.02
2018-07-30T06:51:23.471Z,35.32
2018-07-30T06:53:52.279Z,36.88
2018-07-30T06:56:21.141Z,37.15
2018-07-30T06:58:49.958Z,38.06
2018-07-30T07:01:18.813Z,38.11
2018-07-30T07:03:47.653Z,38.15
2018-07-30T07:06:22.669Z,38.58
2018-07-30T07:08:51.524Z,37.24
2018-07-30T07:11:20.406Z,37.11
2018-07-30T07:13:49.252Z,38.16
2018-07-30T07:16:18.081Z,37.06
2018-07-30T07:18:47.008Z,36.50
2018-07-30T07:21:15.910Z,34.94
2018-07-30T07:23:44.702Z,34.47
2018-07-30T07:26:13.515Z,34.81
2018-07-30T07:28:43.588Z,36.90
2018-07-30T07:31:12.420Z,36.45
2018-07-30T07:33:41.293Z,36.57
2018-07-30T07:36:10.134Z,37.37
2018-07-30T07:38:38.979Z,37.27
2018-07-30T07:41:08.614Z,36.58
2018-07-30T07:43:37.530Z,36.07
2018-07-30T07:46:06.351Z,36.12
2018-07-30T07:48:35.227Z,38.09
2018-07-30T07:51:04.658Z,37.95
2018-07-30T07:53:33.691Z,38.90
2018-07-30T07:56:02.517Z,39.05
2018-07-30T07:58:31.356Z,39.47
2018-07-30T08:01:00.197Z,40.60
2018-07-30T08:03:29.002Z,39.50
2018-07-30T08:05:57.891Z,38.22
2018-07-30T08:08:26.706Z,37.09
2018-07-30T08:10:55.602Z,36.59
2018-07-30T08:13:24.440Z,33.97
2018-07-30T08:15:53.268Z,34.24
2018-07-30T08:18:22.115Z,34.76
2018-07-30T08:20:50.941Z,33.25
2018-07-30T08:23:19.816Z,33.48
2018-07-30T08:25:48.641Z,33.60
2018-07-30T08:28:17.474Z,33.62
2018-07-30T08:30:46.301Z,33.05
2018-07-30T08:33:15.174Z,32.84
2018-07-30T08:35:43.993Z,31.57
2018-07-30T08:38:12.860Z,31.40
2018-07-30T08:40:41.741Z,30.57
2018-07-30T08:43:10.586Z,30.88
2018-07-30T08:45:39.421Z,30.80
2018-07-30T08:48:08.255Z,30.76
2018-07-30T08:50:37.142Z,30.94
2018-07-30T08:53:05.964Z,31.83
2018-07-30T08:55:41.496Z,32.10
2018-07-30T08:58:10.329Z,33.75
2018-07-30T09:00:39.192Z,34.92
2018-07-30T09:03:07.999Z,36.43
2018-07-30T09:05:36.838Z,36.93
2018-07-30T09:08:06.042Z,37.07
2018-07-30T09:10:34.903Z,38.11
2018-07-30T09:13:03.720Z,37.68
2018-07-30T09:15:32.555Z,38.25
2018-07-30T09:18:01.445Z,37.78
2018-07-30T09:20:30.297Z,39.09
2018-07-30T09:22:59.121Z,38.26
2018-07-30T09:25:27.945Z,39.74
2018-07-30T09:27:56.831Z,39.16
2018-07-30T09:30:25.686Z,38.75
2018-07-30T09:32:54.625Z,39.44
2018-07-30T09:35:23.387Z,39.85
2018-07-30T09:37:52.265Z,38.38
2018-07-30T09:40:21.118Z,40.03
2018-07-30T09:42:49.959Z,41.42
2018-07-30T09:45:18.827Z,40.75
2018-07-30T09:47:47.671Z,40.45
2018-07-30T09:50:16.544Z,39.43
2018-07-30T09:52:45.406Z,38.26
2018-07-30T09:55:14.254Z,38.22
2018-07-30T09:57:43.225Z,39.05
2018-07-30T10:00:12.073Z,38.78
2018-07-30T10:02:40.904Z,39.42
2018-07-30T10:05:09.752Z,39.40
2018-07-30T10:07:38.599Z,39.74
2018-07-30T10:10:07.426Z,41.16
2018-07-30T10:12:36.280Z,39.81
2018-07-30T10:15:05.295Z,40.59
2018-07-30T10:17:34.273Z,39.54
2018-07-30T10:20:02.948Z,39.24
2018-07-30T10:22:31.778Z,38.67
2018-07-30T10:25:00.807Z,39.69
2018-07-30T10:27:29.657Z,41.40
2018-07-30T10:29:58.506Z,40.92
2018-07-30T10:32:27.326Z,41.26
2018-07-30T10:34:56.267Z,40.74
2018-07-30T10:37:25.114Z,40.32
2018-07-30T10:39:54.006Z,40.59
2018-07-30T10:42:22.820Z,39.63
2018-07-30T10:44:51.648Z,40.83
2018-07-30T10:47:20.646Z,40.65
2018-07-30T10:49:49.489Z,40.43
2018-07-30T10:52:18.301Z,39.02
2018-07-30T10:54:47.149Z,41.80
2018-07-30T10:57:16.005Z,40.15
2018-07-30T10:59:44.937Z,40.05
2018-07-30T11:02:13.756Z,40.12
2018-07-30T11:04:43.319Z,39.45
2018-07-30T11:07:12.395Z,39.67
2018-07-30T11:09:41.310Z,38.06
2018-07-30T11:12:10.075Z,37.61
2018-07-30T11:14:38.948Z,38.78
2018-07-30T11:17:07.762Z,37.78
2018-07-30T11:19:36.655Z,36.68
2018-07-30T11:22:05.469Z,37.03
2018-07-30T11:24:34.939Z,37.54
2018-07-30T11:27:03.804Z,39.52
2018-07-30T11:29:34.206Z,38.22
2018-07-30T11:32:03.047Z,37.99
2018-07-30T11:34:31.940Z,39.66
2018-07-30T11:37:00.777Z,38.28
2018-07-30T11:39:29.604Z,38.55
2018-07-30T11:41:58.444Z,39.39
2018-07-30T11:44:27.277Z,39.32
2018-07-30T11:46:56.112Z,39.08
2018-07-30T11:49:24.964Z,39.46
2018-07-30T11:51:53.932Z,38.74
2018-07-30T11:54:22.904Z,39.45
2018-07-30T11:56:51.634Z,39.15
2018-07-30T11:59:20.450Z,38.05
2018-07-30T12:01:49.351Z,37.42
2018-07-30T12:04:18.101Z,37.94
2018-07-30T12:06:46.934Z,37.83
2018-07-30T12:09:15.799Z,36.25
2018-07-30T12:11:44.620Z,36.28
2018-07-30T12:14:13.454Z,35.86
2018-07-30T12:16:42.448Z,36.24
2018-07-30T12:19:11.227Z,36.19
2018-07-30T12:21:40.159Z,35.58
2018-07-30T12:24:09.066Z,35.35
2018-07-30T12:26:37.910Z,35.46
2018-07-30T12:29:06.741Z,35.83
2018-07-30T12:31:35.601Z,36.04
2018-07-30T12:34:04.410Z,36.34
2018-07-30T12:36:39.500Z,36.31
2018-07-30T12:39:10.318Z,35.76
2018-07-30T12:41:39.275Z,35.91
2018-07-30T12:44:08.090Z,36.03
2018-07-30T12:46:36.954Z,35.21
2018-07-30T12:49:06.151Z,35.74
2018-07-30T12:51:35.091Z,35.65
2018-07-30T12:54:03.915Z,35.73
2018-07-30T12:56:32.779Z,35.88
2018-07-30T12:59:01.627Z,36.15
2018-07-30T13:01:30.486Z,36.24
2018-07-30T13:03:59.356Z,35.62
2018-07-30T13:06:28.176Z,36.03
2018-07-30T13:08:57.004Z,36.00
2018-07-30T13:11:25.841Z,35.20
2018-07-30T13:13:54.667Z,34.96
2018-07-30T13:16:23.499Z,35.04
2018-07-30T13:18:52.372Z,35.08
2018-07-30T13:21:21.207Z,35.47
2018-07-30T13:23:50.004Z,35.91
2018-07-30T13:26:18.871Z,35.57
2018-07-30T13:28:47.705Z,35.23
2018-07-30T13:31:16.529Z,34.82
2018-07-30T13:33:45.915Z,34.93
2018-07-30T13:36:15.190Z,34.74
2018-07-30T13:38:44.021Z,35.44
2018-07-30T13:41:12.926Z,34.90
2018-07-30T13:43:41.796Z,35.12
2018-07-30T13:46:10.605Z,34.55
2018-07-30T13:48:39.539Z,34.69
2018-07-30T13:51:08.356Z,34.85
2018-07-30T13:53:37.186Z,34.94
2018-07-30T13:56:06.419Z,34.71
2018-07-30T13:58:35.303Z,34.84
2018-07-30T14:01:04.303Z,34.65
2018-07-30T14:03:33.237Z,34.67
2018-07-30T14:06:01.984Z,34.68
2018-07-30T14:08:30.822Z,34.50
2018-07-30T14:10:59.651Z,34.60
2018-07-30T14:13:28.490Z,34.71
2018-07-30T14:15:57.329Z,34.43
2018-07-30T14:18:26.185Z,34.32
2018-07-30T14:20:55.216Z,34.38
2018-07-30T14:23:24.042Z,34.28
2018-07-30T14:25:53.072Z,34.56
2018-07-30T14:28:21.939Z,34.55
2018-07-30T14:30:50.821Z,34.89
2018-07-30T14:33:19.639Z,34.49
2018-07-30T14:35:48.496Z,34.18
2018-07-30T14:38:17.333Z,34.37
2018-07-30T14:40:46.156Z,34.27
2018-07-30T14:43:14.994Z,34.62
2018-07-30T14:45:43.846Z,34.97
2018-07-30T14:48:21.248Z,34.91
2018-07-30T14:50:50.104Z,34.86
2018-07-30T14:53:18.961Z,35.14
2018-07-30T14:55:47.817Z,34.85
2018-07-30T14:58:16.662Z,35.05
2018-07-30T15:00:45.482Z,34.88
2018-07-30T15:03:14.337Z,34.58
2018-07-30T15:05:43.164Z,34.21
2018-07-30T15:08:12.005Z,34.21
2018-07-30T15:10:42.618Z,34.47
2018-07-30T15:13:11.459Z,34.65
2018-07-30T15:15:40.345Z,34.42
2018-07-30T15:18:09.171Z,34.30
2018-07-30T15:20:38.037Z,34.28
2018-07-30T15:23:06.859Z,34.36
2018-07-30T15:25:35.769Z,34.40
2018-07-30T15:28:04.820Z,34.57
2018-07-30T15:30:33.662Z,34.40
2018-07-30T15:33:03.690Z,34.43
2018-07-30T15:35:32.523Z,34.51
2018-07-30T15:38:01.353Z,34.65
2018-07-30T15:40:30.215Z,34.82
2018-07-30T15:42:59.013Z,34.93
2018-07-30T15:45:27.853Z,34.56
2018-07-30T15:47:56.728Z,34.42
2018-07-30T15:50:25.564Z,34.23
2018-07-30T15:52:54.424Z,34.01
2018-07-30T15:55:26.147Z,33.24
2018-07-30T15:57:54.988Z,33.44
2018-07-30T16:00:23.831Z,33.28
2018-07-30T16:02:52.674Z,33.11
2018-07-30T16:05:21.525Z,33.14
2018-07-30T16:07:50.334Z,33.08
2018-07-30T16:10:19.163Z,33.11
2018-07-30T16:12:47.993Z,33.08
2018-07-30T16:15:16.838Z,33.14
2018-07-30T16:17:48.872Z,33.27
2018-07-30T16:20:17.755Z,33.57
2018-07-30T16:22:46.581Z,33.66
2018-07-30T16:25:15.426Z,33.46
2018-07-30T16:27:44.255Z,33.37
2018-07-30T16:30:13.080Z,33.38
2018-07-30T16:32:41.900Z,33.57
2018-07-30T16:35:10.731Z,33.75
2018-07-30T16:37:39.555Z,33.61
2018-07-30T16:40:11.177Z,33.27
2018-07-30T16:42:40.007Z,33.24
2018-07-30T16:45:09.356Z,33.32
2018-07-30T16:47:38.439Z,33.40
2018-07-30T16:50:08.195Z,33.45
2018-07-30T16:52:37.035Z,33.49
2018-07-30T16:55:06.327Z,33.53
2018-07-30T16:57:35.155Z,33.65
2018-07-30T17:00:06.707Z,33.78
2018-07-30T17:02:35.603Z,33.69
2018-07-30T17:05:05.068Z,33.56
2018-07-30T17:07:33.915Z,33.43
2018-07-30T17:10:02.776Z,33.41
2018-07-30T17:12:31.596Z,33.34
2018-07-30T17:15:00.455Z,33.17
2018-07-30T17:17:29.509Z,32.99
2018-07-30T17:19:58.436Z,32.83
2018-07-30T17:22:27.349Z,32.71
2018-07-30T17:24:56.186Z,32.57
2018-07-30T17:27:25.061Z,32.76
2018-07-30T17:29:53.911Z,32.45
2018-07-30T17:32:22.718Z,32.36
2018-07-30T17:34:51.523Z,32.23
2018-07-30T17:37:20.383Z,32.19
2018-07-30T17:39:49.211Z,32.19
2018-07-30T17:42:18.066Z,32.16
2018-07-30T17:44:48.096Z,32.00
2018-07-30T17:47:16.934Z,32.04
2018-07-30T17:49:45.787Z,32.06
2018-07-30T17:52:14.622Z,32.01
2018-07-30T17:54:43.484Z,31.96
2018-07-30T17:57:12.338Z,32.05
2018-07-30T17:59:41.226Z,32.04
2018-07-30T18:02:10.238Z,31.99
2018-07-30T18:04:39.044Z,32.02
2018-07-30T18:07:11.255Z,32.15
2018-07-30T18:09:40.079Z,32.12
2018-07-30T18:12:08.938Z,32.19
2018-07-30T18:14:37.783Z,32.38
2018-07-30T18:17:06.701Z,32.17
2018-07-30T18:19:35.565Z,32.17
2018-07-30T18:22:04.418Z,32.15
2018-07-30T18:24:33.270Z,32.09
2018-07-30T18:27:02.239Z,32.05
2018-07-30T18:29:31.125Z,31.97
2018-07-30T18:31:59.938Z,31.85
2018-07-30T18:34:28.754Z,31.69
2018-07-30T18:36:57.599Z,31.62
2018-07-30T18:39:26.444Z,31.57
2018-07-30T18:41:55.288Z,31.44
2018-07-30T18:44:24.109Z,31.35
2018-07-30T18:46:52.948Z,31.29
2018-07-30T18:49:21.798Z,31.16
2018-07-30T18:52:26.240Z,31.05
2018-07-30T18:54:55.113Z,30.87
2018-07-30T18:57:23.988Z,30.78
2018-07-30T18:59:52.853Z,30.71
2018-07-30T19:02:21.689Z,30.65
2018-07-30T19:04:50.715Z,30.58
2018-07-30T19:07:19.473Z,30.51
2018-07-30T19:09:48.299Z,30.43
2018-07-30T19:12:17.148Z,30.36
2018-07-30T19:14:46.167Z,30.29
2018-07-30T19:17:15.045Z,30.20
2018-07-30T19:19:43.920Z,30.14
2018-07-30T19:22:12.861Z,30.36
2018-07-30T19:24:41.789Z,30.14
2018-07-30T19:27:10.648Z,30.01
2018-07-30T19:29:39.789Z,29.94
2018-07-30T19:32:08.678Z,29.86
2018-07-30T19:34:38.163Z,29.78
2018-07-30T19:37:07.395Z,29.67
2018-07-30T19:39:36.287Z,29.61
2018-07-30T19:42:05.291Z,29.56
2018-07-30T19:44:34.199Z,29.50
2018-07-30T19:47:02.992Z,29.40
2018-07-30T19:49:31.844Z,29.33
2018-07-30T19:52:00.703Z,29.28
2018-07-30T19:54:29.570Z,29.22
2018-07-30T19:56:58.421Z,29.20
2018-07-30T19:59:27.296Z,29.11
2018-07-30T20:01:56.121Z,29.04
2018-07-30T20:04:24.971Z,28.97
2018-07-30T20:06:53.884Z,28.88
2018-07-30T20:09:22.687Z,28.86
2018-07-30T20:11:51.537Z,28.85
2018-07-30T20:14:20.368Z,29.07
2018-07-30T20:16:49.250Z,28.91
2018-07-30T20:19:21.256Z,29.05
2018-07-30T20:21:50.123Z,28.91
2018-07-30T20:24:18.938Z,28.87
2018-07-30T20:26:47.796Z,28.75
2018-07-30T20:29:16.649Z,28.68
2018-07-30T20:31:45.477Z,28.64
2018-07-30T20:34:14.314Z,28.56
2018-07-30T20:36:43.184Z,28.55
2018-07-30T20:39:12.044Z,28.29
2018-07-30T20:41:41.987Z,28.24
2018-07-30T20:44:10.866Z,28.16
2018-07-30T20:46:39.736Z,27.73
2018-07-30T20:49:08.600Z,27.52
2018-07-30T20:51:37.439Z,27.33
2018-07-30T20:54:06.280Z,27.12
2018-07-30T20:56:35.111Z,26.89
2018-07-30T20:59:04.030Z,26.73
2018-07-30T21:01:32.843Z,26.71
2018-07-30T21:04:01.763Z,26.51
2018-07-30T21:06:30.610Z,26.40
2018-07-30T21:08:59.439Z,26.31
2018-07-30T21:11:28.279Z,26.25
2018-07-30T21:13:57.114Z,26.11
2018-07-30T21:16:25.924Z,26.10
2018-07-30T21:18:54.766Z,26.02
2018-07-30T21:21:23.584Z,25.97
2018-07-30T21:23:52.458Z,25.86
2018-07-30T21:26:21.311Z,25.68
2018-07-30T21:28:50.213Z,25.63
2018-07-30T21:31:19.107Z,25.51
2018-07-30T21:33:47.953Z,25.48
2018-07-30T21:36:16.800Z,25.43
2018-07-30T21:38:45.627Z,25.38
2018-07-30T21:41:14.540Z,25.29
2018-07-30T21:43:43.330Z,25.32
2018-07-30T21:46:12.146Z,25.13
2018-07-30T21:48:40.998Z,25.09
2018-07-30T21:51:09.870Z,25.04
2018-07-30T21:53:38.777Z,25.17
2018-07-30T21:56:07.818Z,25.01
2018-07-30T21:58:36.653Z,25.01
2018-07-30T22:01:05.532Z,25.17
2018-07-30T22:03:34.385Z,24.96
2018-07-30T22:06:03.291Z,24.92
2018-07-30T22:08:32.127Z,24.82
2018-07-30T22:11:01.025Z,24.74
2018-07-30T22:13:30.025Z,24.70
2018-07-30T22:15:58.859Z,24.65
2018-07-30T22:18:27.692Z,24.67
2018-07-30T22:20:56.521Z,24.76
2018-07-30T22:23:25.362Z,24.55
2018-07-30T22:25:54.218Z,24.49
2018-07-30T22:28:23.050Z,24.59
2018-07-30T22:30:51.986Z,24.33
2018-07-30T22:33:20.939Z,24.25
2018-07-30T22:35:49.770Z,24.13
2018-07-30T22:38:18.607Z,24.18
2018-07-30T22:40:47.484Z,24.10
2018-07-30T22:43:16.328Z,24.13
2018-07-30T22:45:45.168Z,24.13
2018-07-30T22:48:14.073Z,24.09
2018-07-30T22:50:42.959Z,24.14
2018-07-30T22:53:11.828Z,23.93
2018-07-30T22:55:40.794Z,24.07
2018-07-30T22:58:09.634Z,23.82
2018-07-30T23:00:38.676Z,23.79
2018-07-30T23:03:07.511Z,24.07
2018-07-30T23:05:36.342Z,24.14
2018-07-30T23:08:05.199Z,23.95
2018-07-30T23:10:34.068Z,23.90
2018-07-30T23:13:02.895Z,24.05
2018-07-30T23:15:31.756Z,23.68
2018-07-30T23:18:03.670Z,23.87
2018-07-30T23:20:32.496Z,23.71
2018-07-30T23:23:01.332Z,23.75
2018-07-30T23:25:30.181Z,23.63
2018-07-30T23:27:58.983Z,23.52
2018-07-30T23:30:27.843Z,23.45
2018-07-30T23:32:56.719Z,23.36
2018-07-30T23:35:25.547Z,23.30
2018-07-30T23:37:54.354Z,23.24
2018-07-30T23:40:26.326Z,23.28
2018-07-30T23:42:55.153Z,23.48
2018-07-30T23:45:23.991Z,23.27
2018-07-30T23:47:52.807Z,23.17
2018-07-30T23:50:21.655Z,23.12
2018-07-30T23:52:50.465Z,23.12
2018-07-30T23:55:19.370Z,23.11
2018-07-30T23:57:48.125Z,23.05
